Time;durP1;ratioP1;P1;durP2;ratioP2;P2;SDS_P1;SDS_P2;PMS_P1;PMS_P2;Temp;Humidity;BMP_temperature;BMP_pressure;BME280_temperature;BME280_humidity;BME280_pressure;Samples;Min_cycle;Max_cycle;Signal;HPM_P1;HPM_P2
2022/07/21 00:01:03;;;;;;;9.90;9.18;;;;;;;;;;6242833;22;20172;-92
2022/07/21 00:03:45;;;;;;;9.15;8.55;;;;;;;;;;6245218;23;20211;-92
2022/07/21 00:09:07;;;;;;;9.27;8.57;;;;;;;;;;6244325;23;20247;-92
2022/07/21 00:11:43;;;;;;;9.85;9.15;;;;;;;;;;6244545;22;20199;-91
2022/07/21 00:14:20;;;;;;;9.63;8.77;;;;;;;;;;6245371;23;20168;-91
2022/07/21 00:16:54;;;;;;;8.98;8.27;;;;;;;;;;6244764;23;20165;-91
2022/07/21 00:22:10;;;;;;;9.00;8.38;;;;;;;;;;6240002;22;20220;-92
2022/07/21 00:24:41;;;;;;;9.50;8.80;;;;;;;;;;6244588;23;20195;-91
2022/07/21 00:27:36;;;;;;;8.82;8.18;;;;;;;;;;6244660;23;20173;-91
2022/07/21 00:30:26;;;;;;;9.35;8.65;;;;;;;;;;6245226;23;20287;-91
2022/07/21 00:33:00;;;;;;;9.18;8.52;;;;;;;;;;6244723;22;20664;-91
2022/07/21 00:35:44;;;;;;;8.45;7.75;;;;;;;;;;6244903;23;20165;-91
2022/07/21 00:38:15;;;;;;;9.50;8.80;;;;;;;;;;6244891;23;20172;-91
2022/07/21 00:41:05;;;;;;;8.75;8.18;;;;;;;;;;6244858;22;20168;-91
2022/07/21 00:44:02;;;;;;;8.60;8.00;;;;;;;;;;6245622;23;20175;-91
2022/07/21 00:46:42;;;;;;;8.30;7.70;;;;;;;;;;6244279;23;20172;-91
2022/07/21 00:55:10;;;;;;;8.38;7.78;;;;;;;;;;6228539;23;20178;-92
2022/07/21 00:57:56;;;;;;;9.43;8.63;;;;;;;;;;6244150;23;20255;-91
2022/07/21 01:00:49;;;;;;;8.45;7.75;;;;;;;;;;6244594;23;20172;-92
2022/07/21 01:12:02;;;;;;;8.35;7.85;;;;;;;;;;6236331;22;20749;-92
2022/07/21 01:14:41;;;;;;;8.13;7.63;;;;;;;;;;6244681;23;20183;-92
2022/07/21 01:17:23;;;;;;;8.95;8.25;;;;;;;;;;6243993;23;20243;-92
2022/07/21 01:20:03;;;;;;;8.38;7.78;;;;;;;;;;6244466;23;20192;-91
2022/07/21 01:23:03;;;;;;;8.55;7.93;;;;;;;;;;6244264;22;20204;-91
2022/07/21 01:25:51;;;;;;;8.00;7.50;;;;;;;;;;6244275;23;20184;-92
2022/07/21 01:28:28;;;;;;;8.82;8.18;;;;;;;;;;6246027;23;20168;-90
2022/07/21 01:31:06;;;;;;;8.70;8.10;;;;;;;;;;6245829;22;20195;-89
2022/07/21 01:42:28;;;;;;;8.27;7.63;;;;;;;;;;6243998;22;20629;-89
2022/07/21 01:45:08;;;;;;;9.20;8.40;;;;;;;;;;6244990;23;20165;-89
2022/07/21 01:47:46;;;;;;;8.55;7.95;;;;;;;;;;6244158;23;20172;-91
2022/07/21 01:50:26;;;;;;;8.27;7.68;;;;;;;;;;6244329;23;20188;-91
2022/07/21 01:53:01;;;;;;;8.52;7.93;;;;;;;;;;6244411;22;20229;-92
2022/07/21 01:55:36;;;;;;;8.35;7.75;;;;;;;;;;6243385;23;20194;-93
2022/07/21 01:58:15;;;;;;;8.98;8.32;;;;;;;;;;6243286;23;20170;-92
2022/07/21 02:00:54;;;;;;;8.65;8.05;;;;;;;;;;6243227;23;20160;-91
2022/07/21 02:06:52;;;;;;;8.13;7.53;;;;;;;;;;6227994;23;20168;-91
2022/07/21 02:09:22;;;;;;;9.13;8.43;;;;;;;;;;6243930;23;20197;-92
2022/07/21 02:12:06;;;;;;;8.30;7.65;;;;;;;;;;6244071;22;20254;-92
2022/07/21 02:14:53;;;;;;;8.80;8.10;;;;;;;;;;6244102;23;20169;-91
2022/07/21 02:17:30;;;;;;;8.63;8.02;;;;;;;;;;6244113;23;20176;-92
2022/07/21 02:23:11;;;;;;;8.10;7.60;;;;;;;;;;6232447;22;20224;-92
2022/07/21 02:31:25;;;;;;;8.07;7.47;;;;;;;;;;6249340;22;20200;-94
2022/07/21 02:34:13;;;;;;;8.70;8.10;;;;;;;;;;6272200;22;20172;-93
2022/07/21 02:36:56;;;;;;;8.55;7.85;;;;;;;;;;6270878;22;20169;-92
2022/07/21 02:42:49;;;;;;;8.68;8.07;;;;;;;;;;6239212;22;20219;-92
2022/07/21 03:04:11;;;;;;;8.55;7.95;;;;;;;;;;6336398;22;20182;-89
2022/07/21 03:07:08;;;;;;;8.20;7.60;;;;;;;;;;6337632;22;20167;-89
2022/07/21 03:36:28;;;;;;;7.65;7.15;;;;;;;;;;6120694;23;20175;-91
2022/07/21 03:39:11;;;;;;;7.85;7.32;;;;;;;;;;6123166;23;20238;-92
2022/07/21 03:41:38;;;;;;;8.13;7.53;;;;;;;;;;6135901;22;20178;-88
2022/07/21 03:44:13;;;;;;;8.18;7.47;;;;;;;;;;6245353;23;20675;-88
2022/07/21 03:46:40;;;;;;;7.75;7.25;;;;;;;;;;6244384;23;20176;-88
2022/07/21 03:49:07;;;;;;;7.88;7.28;;;;;;;;;;6245320;23;20195;-89
2022/07/21 03:51:34;;;;;;;8.52;7.93;;;;;;;;;;6244616;22;20188;-88
2022/07/21 03:54:02;;;;;;;7.70;7.10;;;;;;;;;;6245083;23;20172;-89
2022/07/21 03:56:29;;;;;;;8.43;7.82;;;;;;;;;;6244337;23;20243;-89
2022/07/21 03:58:57;;;;;;;7.68;7.07;;;;;;;;;;6245071;23;20173;-88
2022/07/21 04:01:26;;;;;;;7.82;7.22;;;;;;;;;;6245375;22;20168;-88
2022/07/21 04:03:53;;;;;;;8.32;7.72;;;;;;;;;;6244722;23;20199;-89
2022/07/21 04:06:23;;;;;;;8.35;7.75;;;;;;;;;;6244214;23;20172;-89
2022/07/21 04:08:50;;;;;;;7.70;7.10;;;;;;;;;;6245286;23;20173;-89
2022/07/21 04:11:18;;;;;;;7.80;7.20;;;;;;;;;;6244870;22;20736;-89
2022/07/21 04:13:45;;;;;;;7.75;7.15;;;;;;;;;;6244976;23;20173;-88
2022/07/21 04:16:13;;;;;;;8.38;7.70;;;;;;;;;;6244447;23;20564;-88
2022/07/21 04:18:41;;;;;;;8.35;7.72;;;;;;;;;;6245396;23;20172;-89
2022/07/21 04:21:09;;;;;;;8.05;7.50;;;;;;;;;;6245148;23;20199;-89
2022/07/21 04:23:36;;;;;;;7.53;6.97;;;;;;;;;;6244469;22;20537;-89
2022/07/21 04:26:03;;;;;;;7.45;6.95;;;;;;;;;;6244512;23;20180;-88
2022/07/21 04:28:31;;;;;;;7.80;7.20;;;;;;;;;;6244415;23;20175;-88
2022/07/21 04:31:04;;;;;;;8.02;7.43;;;;;;;;;;6241963;23;20196;-89
2022/07/21 04:33:31;;;;;;;7.20;6.70;;;;;;;;;;6243306;22;20242;-89
2022/07/21 04:36:01;;;;;;;7.20;6.70;;;;;;;;;;6246997;23;20176;-89
2022/07/21 04:38:35;;;;;;;6.72;6.13;;;;;;;;;;6243755;23;20252;-89
2022/07/21 04:41:02;;;;;;;6.72;6.22;;;;;;;;;;6244512;23;20165;-89
2022/07/21 04:43:38;;;;;;;7.25;6.38;;;;;;;;;;6243617;22;20255;-89
2022/07/21 04:46:14;;;;;;;7.13;6.50;;;;;;;;;;6243163;23;20172;-89
2022/07/21 04:51:25;;;;;;;7.25;6.65;;;;;;;;;;6243487;22;20280;-88
2022/07/21 04:53:52;;;;;;;7.93;7.30;;;;;;;;;;6241871;23;20207;-90
2022/07/21 04:56:29;;;;;;;8.70;8.00;;;;;;;;;;6242956;23;20172;-89
2022/07/21 04:58:59;;;;;;;8.30;7.50;;;;;;;;;;6244154;23;20165;-88
2022/07/21 05:01:38;;;;;;;8.20;7.50;;;;;;;;;;6243490;22;20191;-89
2022/07/21 05:04:09;;;;;;;9.15;8.25;;;;;;;;;;6244440;23;20164;-88
2022/07/21 05:06:41;;;;;;;9.45;8.07;;;;;;;;;;6243538;23;20172;-88
2022/07/21 05:18:34;;;;;;;8.73;7.93;;;;;;;;;;6151184;23;20173;-88
2022/07/21 05:56:06;;;;;;;9.60;8.90;;;;;;;;;;6114307;23;20176;-86
2022/07/21 06:04:11;;;;;;;8.95;8.25;;;;;;;;;;6201150;22;20176;-88
2022/07/21 06:06:41;;;;;;;8.43;7.65;;;;;;;;;;6339034;22;20193;-87
2022/07/21 06:09:09;;;;;;;8.38;7.70;;;;;;;;;;6344047;22;20188;-87
2022/07/21 06:11:37;;;;;;;8.57;7.88;;;;;;;;;;6340009;22;20189;-86
2022/07/21 06:14:10;;;;;;;8.63;7.93;;;;;;;;;;6339214;22;20249;-87
2022/07/21 06:20:15;;;;;;;8.20;7.60;;;;;;;;;;6340926;22;20167;-87
2022/07/21 06:22:44;;;;;;;8.50;7.90;;;;;;;;;;6340317;22;20201;-85
2022/07/21 06:25:20;;;;;;;8.57;7.88;;;;;;;;;;6341941;22;20176;-85
2022/07/21 06:27:52;;;;;;;8.00;7.30;;;;;;;;;;6342973;22;20193;-86
2022/07/21 06:33:13;;;;;;;8.05;7.35;;;;;;;;;;6338887;22;20254;-86
2022/07/21 06:35:42;;;;;;;8.18;7.32;;;;;;;;;;6342694;22;20224;-85
2022/07/21 06:38:15;;;;;;;8.57;7.70;;;;;;;;;;6343054;22;20190;-86
2022/07/21 06:43:48;;;;;;;8.23;7.43;;;;;;;;;;6338543;22;20166;-86
2022/07/21 06:46:23;;;;;;;8.10;7.30;;;;;;;;;;6340507;22;20163;-85
2022/07/21 06:49:11;;;;;;;9.00;7.35;;;;;;;;;;6341468;22;20190;-86
2022/07/21 06:52:03;;;;;;;9.75;7.60;;;;;;;;;;6340828;22;20266;-87
2022/07/21 07:04:03;;;;;;;8.43;7.60;;;;;;;;;;6155040;23;20178;-86
2022/07/21 07:07:14;;;;;;;9.73;7.65;;;;;;;;;;6154263;23;20279;-86
2022/07/21 07:10:11;;;;;;;9.48;7.80;;;;;;;;;;6037787;23;20173;-90
2022/07/21 07:13:08;;;;;;;7.85;7.25;;;;;;;;;;6038638;23;20205;-87
2022/07/21 07:16:04;;;;;;;8.18;7.38;;;;;;;;;;6039400;23;20177;-86
2022/07/21 07:42:35;;;;;;;7.78;7.00;;;;;;;;;;5964588;24;20209;-90
2022/07/21 07:45:14;;;;;;;7.90;7.20;;;;;;;;;;5981797;24;20239;-87
2022/07/21 07:48:06;;;;;;;7.63;6.93;;;;;;;;;;6030520;23;20201;-89
2022/07/21 07:54:08;;;;;;;;;;;;;;;;;;;;;
2022/07/21 08:48:33;;;;;;;7.00;6.30;;;;;;;;;;6249272;22;20267;-85
2022/07/21 09:00:35;;;;;;;6.70;6.10;;;;;;;;;;6159983;23;20178;-89
2022/07/21 10:01:29;;;;;;;30.92;19.13;;;;;;;;;;6099572;23;20190;-86
2022/07/21 10:04:24;;;;;;;24.95;16.63;;;;;;;;;;6154768;23;20166;-85
2022/07/21 10:06:51;;;;;;;22.27;14.63;;;;;;;;;;6156346;23;20200;-86
2022/07/21 10:09:48;;;;;;;25.15;15.80;;;;;;;;;;6155057;23;20233;-90
2022/07/21 11:10:41;;;;;;;5.20;4.75;;;;;;;;;;6256545;22;20215;-83
2022/07/21 11:34:14;;;;;;;4.88;4.47;;;;;;;;;;6334402;22;20163;-89
2022/07/21 11:36:48;;;;;;;4.78;4.38;;;;;;;;;;6339582;22;20205;-88
2022/07/21 11:39:21;;;;;;;4.60;4.20;;;;;;;;;;6340770;22;20186;-90
2022/07/21 11:41:50;;;;;;;5.18;4.38;;;;;;;;;;6341141;22;20166;-88
2022/07/21 15:23:03;;;;;;;4.22;3.90;;;;;;;;;;6255718;22;20231;-91
2022/07/21 15:35:00;;;;;;;3.95;3.55;;;;;;;;;;6158388;23;20213;-94
2022/07/21 15:37:42;;;;;;;4.10;3.75;;;;;;;;;;6155631;23;20199;-90
2022/07/21 15:40:17;;;;;;;4.32;3.92;;;;;;;;;;6164546;23;20222;-93
2022/07/21 15:49:16;;;;;;;4.50;4.10;;;;;;;;;;6081317;23;20232;-90
2022/07/21 15:55:23;;;;;;;3.95;3.65;;;;;;;;;;6030997;23;20189;-93
2022/07/21 16:04:42;;;;;;;3.70;3.50;;;;;;;;;;6007055;23;20173;-93
2022/07/21 16:07:19;;;;;;;4.38;3.97;;;;;;;;;;5953404;23;20180;-92
2022/07/21 16:10:22;;;;;;;;;;;;;;;;;;;;;
2022/07/21 16:13:00;;;;;;;4.03;3.72;;;;;;;;;;5990628;24;20221;-92
2022/07/21 16:15:54;;;;;;;4.30;3.90;;;;;;;;;;5991327;24;20178;-93
2022/07/21 16:21:44;;;;;;;;;;;;;;;;;;;;;
2022/07/21 16:42:25;;;;;;;4.30;4.00;;;;;;;;;;5845619;24;20173;-91
2022/07/21 16:44:53;;;;;;;4.38;4.07;;;;;;;;;;5918100;24;20183;-90
2022/07/21 16:47:32;;;;;;;5.10;4.70;;;;;;;;;;5988430;23;20194;-92
2022/07/21 16:50:24;;;;;;;4.60;4.20;;;;;;;;;;6062198;23;20177;-93
2022/07/21 16:53:08;;;;;;;4.28;3.90;;;;;;;;;;5949000;24;20194;-93
2022/07/21 17:27:19;;;;;;;4.60;4.25;;;;;;;;;;6238557;22;20188;-90
2022/07/21 17:29:46;;;;;;;4.57;4.28;;;;;;;;;;6243341;22;20192;-85
2022/07/21 17:32:16;;;;;;;5.22;4.82;;;;;;;;;;6244916;23;20176;-85
2022/07/21 17:34:43;;;;;;;4.35;4.05;;;;;;;;;;6245158;23;20276;-87
2022/07/21 17:37:13;;;;;;;4.78;4.18;;;;;;;;;;6244192;23;20176;-87
2022/07/21 17:39:40;;;;;;;4.97;4.57;;;;;;;;;;6244269;22;20263;-86
2022/07/21 17:42:08;;;;;;;5.18;4.60;;;;;;;;;;6244629;23;20641;-87
2022/07/21 17:44:36;;;;;;;5.20;4.80;;;;;;;;;;6244921;23;20244;-86
2022/07/21 17:47:14;;;;;;;4.10;3.80;;;;;;;;;;6244066;23;20172;-86
2022/07/21 17:49:41;;;;;;;4.30;4.00;;;;;;;;;;6245012;22;20210;-86
2022/07/21 17:52:12;;;;;;;4.68;4.28;;;;;;;;;;6244860;23;20192;-86
2022/07/21 17:54:39;;;;;;;4.53;3.90;;;;;;;;;;6245106;23;20181;-86
2022/07/21 17:59:53;;;;;;;4.22;3.92;;;;;;;;;;6244495;22;20242;-86
2022/07/21 18:02:21;;;;;;;4.57;4.20;;;;;;;;;;6245230;23;20527;-86
2022/07/21 18:04:48;;;;;;;4.25;3.85;;;;;;;;;;6244570;23;20165;-87
2022/07/21 18:07:15;;;;;;;4.53;3.60;;;;;;;;;;6244364;23;20172;-88
2022/07/21 18:09:43;;;;;;;5.65;4.15;;;;;;;;;;6243439;22;20192;-87
2022/07/21 18:12:10;;;;;;;4.57;4.28;;;;;;;;;;6243986;23;20645;-86
2022/07/21 18:14:37;;;;;;;4.35;4.05;;;;;;;;;;6244094;23;20188;-88
2022/07/21 18:17:06;;;;;;;4.45;4.05;;;;;;;;;;6243494;23;20172;-87
2022/07/21 18:19:34;;;;;;;4.35;3.95;;;;;;;;;;6245072;22;20267;-86
2022/07/21 18:22:01;;;;;;;4.80;4.40;;;;;;;;;;6247171;23;20184;-87
2022/07/21 18:24:37;;;;;;;4.40;4.03;;;;;;;;;;6246850;23;20175;-87
2022/07/21 18:27:18;;;;;;;4.60;4.20;;;;;;;;;;6245952;23;20173;-86
2022/07/21 18:29:46;;;;;;;4.60;4.10;;;;;;;;;;6246242;22;20255;-90
2022/07/21 18:32:14;;;;;;;4.05;3.75;;;;;;;;;;6246597;23;20172;-87
2022/07/21 18:34:42;;;;;;;4.65;4.25;;;;;;;;;;6246082;23;20242;-87
2022/07/21 18:37:11;;;;;;;5.20;4.80;;;;;;;;;;6245790;23;20173;-87
2022/07/21 18:39:42;;;;;;;4.43;4.13;;;;;;;;;;6246646;22;20204;-87
2022/07/21 18:42:09;;;;;;;4.10;3.80;;;;;;;;;;6247437;23;20173;-87
2022/07/21 18:44:37;;;;;;;4.78;4.35;;;;;;;;;;6246713;23;20227;-87
2022/07/21 18:47:05;;;;;;;4.60;4.30;;;;;;;;;;6245980;23;20169;-87
2022/07/21 18:49:33;;;;;;;4.63;4.22;;;;;;;;;;6246239;22;20197;-85
2022/07/21 18:52:04;;;;;;;4.43;4.13;;;;;;;;;;6246321;23;20226;-88
2022/07/21 18:54:31;;;;;;;4.85;4.32;;;;;;;;;;6245930;23;20181;-85
2022/07/21 18:57:02;;;;;;;4.30;3.90;;;;;;;;;;6245083;23;20200;-86
2022/07/21 18:59:30;;;;;;;5.10;4.43;;;;;;;;;;6245691;22;20195;-87
2022/07/21 19:02:02;;;;;;;4.45;4.07;;;;;;;;;;6245767;23;20172;-86
2022/07/21 19:04:40;;;;;;;5.63;4.97;;;;;;;;;;6246371;23;20210;-87
2022/07/21 19:07:12;;;;;;;5.35;4.30;;;;;;;;;;6246319;23;20192;-87
2022/07/21 19:09:39;;;;;;;5.18;4.68;;;;;;;;;;6246413;22;20263;-87
2022/07/21 19:12:07;;;;;;;5.78;5.20;;;;;;;;;;6247099;23;20172;-88
2022/07/21 19:14:38;;;;;;;4.60;4.20;;;;;;;;;;6246336;23;20734;-87
2022/07/21 19:17:21;;;;;;;4.70;4.40;;;;;;;;;;6246042;23;20207;-86
2022/07/21 19:20:00;;;;;;;4.90;4.50;;;;;;;;;;6244074;22;20283;-87
2022/07/21 19:22:30;;;;;;;4.65;4.25;;;;;;;;;;6254814;23;20179;-85
2022/07/21 19:24:58;;;;;;;4.82;4.40;;;;;;;;;;6271503;22;20191;-86
2022/07/21 19:27:25;;;;;;;5.25;4.75;;;;;;;;;;6265373;23;20267;-88
2022/07/21 19:29:56;;;;;;;5.40;4.90;;;;;;;;;;6247140;22;20254;-89
2022/07/21 19:32:40;;;;;;;5.18;4.80;;;;;;;;;;6245747;23;20169;-87
2022/07/21 19:35:19;;;;;;;5.10;4.70;;;;;;;;;;6246103;23;20191;-88
2022/07/21 19:37:47;;;;;;;6.22;5.65;;;;;;;;;;6247129;23;20167;-87
2022/07/21 19:40:22;;;;;;;5.20;4.80;;;;;;;;;;6252128;22;20210;-86
2022/07/21 19:43:00;;;;;;;5.18;4.78;;;;;;;;;;6245551;23;20187;-88
2022/07/21 19:45:30;;;;;;;4.75;4.35;;;;;;;;;;6246596;23;20164;-87
2022/07/21 19:47:58;;;;;;;5.15;4.68;;;;;;;;;;6245076;23;20175;-87
2022/07/21 19:50:29;;;;;;;5.03;4.55;;;;;;;;;;6245907;23;20173;-87
2022/07/21 19:52:58;;;;;;;5.28;4.78;;;;;;;;;;6246776;23;20168;-87
2022/07/21 19:55:29;;;;;;;5.93;5.43;;;;;;;;;;6245521;23;20244;-88
2022/07/21 19:57:58;;;;;;;5.50;5.00;;;;;;;;;;6246557;23;20173;-86
2022/07/21 20:00:25;;;;;;;5.43;5.03;;;;;;;;;;6246168;23;20173;-87
2022/07/21 20:06:23;;;;;;;6.90;5.03;;;;;;;;;;6065050;23;20265;-87
2022/07/21 20:09:18;;;;;;;5.13;4.72;;;;;;;;;;6067554;23;20197;-88
2022/07/21 20:11:58;;;;;;;5.30;4.82;;;;;;;;;;6097396;23;20191;-89
2022/07/21 20:14:30;;;;;;;5.28;4.85;;;;;;;;;;6122877;23;20195;-90
2022/07/21 20:17:00;;;;;;;5.32;4.93;;;;;;;;;;6122263;23;20175;-89
2022/07/21 20:19:47;;;;;;;4.78;4.38;;;;;;;;;;6122540;23;20344;-90
2022/07/21 20:32:01;;;;;;;5.28;4.80;;;;;;;;;;6009525;23;20178;-92
2022/07/21 20:40:49;;;;;;;4.95;4.57;;;;;;;;;;6065149;23;20180;-92
2022/07/21 20:43:19;;;;;;;5.32;4.63;;;;;;;;;;6150862;23;20175;-92
2022/07/21 20:49:10;;;;;;;4.90;4.50;;;;;;;;;;6149975;23;20237;-90
2022/07/21 20:52:32;;;;;;;4.93;4.53;;;;;;;;;;6152357;23;20241;-92
2022/07/21 21:04:12;;;;;;;5.05;4.65;;;;;;;;;;6122937;23;20182;-91
2022/07/21 21:10:04;;;;;;;4.72;4.43;;;;;;;;;;6162065;23;20198;-93
2022/07/21 21:12:55;;;;;;;5.13;4.72;;;;;;;;;;6184786;23;20181;-92
2022/07/21 21:16:04;;;;;;;5.00;4.60;;;;;;;;;;6185063;23;20190;-92
2022/07/21 21:18:44;;;;;;;4.63;4.32;;;;;;;;;;6183266;23;20200;-93
2022/07/21 21:21:25;;;;;;;5.03;4.63;;;;;;;;;;6184798;23;20167;-92
2022/07/21 21:24:06;;;;;;;4.97;4.57;;;;;;;;;;6184960;23;20161;-92
2022/07/21 21:27:01;;;;;;;4.65;4.30;;;;;;;;;;6184570;23;20169;-94
2022/07/21 21:29:47;;;;;;;4.53;4.13;;;;;;;;;;6184589;23;20585;-93
2022/07/21 21:33:02;;;;;;;4.75;4.45;;;;;;;;;;6184975;23;20208;-93
2022/07/21 21:35:35;;;;;;;5.28;4.50;;;;;;;;;;6184454;23;20193;-91
2022/07/21 21:38:13;;;;;;;4.50;4.20;;;;;;;;;;6184558;23;20170;-92
2022/07/21 21:41:15;;;;;;;4.70;4.30;;;;;;;;;;6185512;23;20595;-93
2022/07/21 21:43:45;;;;;;;4.38;4.07;;;;;;;;;;6185755;23;20232;-93
2022/07/21 21:46:24;;;;;;;4.65;4.35;;;;;;;;;;6185177;23;20169;-92
2022/07/21 21:49:18;;;;;;;4.93;4.53;;;;;;;;;;6184723;23;20205;-91
2022/07/21 21:57:28;;;;;;;4.78;4.38;;;;;;;;;;6181340;23;20248;-93
2022/07/21 22:00:22;;;;;;;4.88;4.47;;;;;;;;;;6184727;23;20205;-93
2022/07/21 22:06:13;;;;;;;4.45;4.15;;;;;;;;;;6184219;23;20176;-92
2022/07/21 22:11:37;;;;;;;5.10;4.70;;;;;;;;;;6143836;23;20252;-92
2022/07/21 22:17:32;;;;;;;5.20;4.80;;;;;;;;;;6180409;23;20178;-92
2022/07/21 22:26:10;;;;;;;;;;;;;;;;;;;;;
2022/07/21 22:34:12;;;;;;;4.95;4.50;;;;;;;;;;6251242;22;20235;-92
2022/07/21 22:42:11;;;;;;;4.70;4.30;;;;;;;;;;6295582;22;20175;-93
2022/07/21 22:44:42;;;;;;;4.65;4.28;;;;;;;;;;6306444;22;20228;-92
2022/07/21 22:47:19;;;;;;;5.07;4.68;;;;;;;;;;6306191;22;20163;-92
2022/07/21 22:52:27;;;;;;;4.90;4.53;;;;;;;;;;6304413;22;20182;-92
2022/07/21 22:54:56;;;;;;;4.70;4.30;;;;;;;;;;6306083;22;20183;-92
2022/07/21 22:57:30;;;;;;;4.30;4.00;;;;;;;;;;6305786;22;20223;-92
2022/07/21 23:00:02;;;;;;;4.80;4.47;;;;;;;;;;6306446;22;20242;-92
2022/07/21 23:05:29;;;;;;;4.60;4.20;;;;;;;;;;6291165;22;20277;-92
2022/07/21 23:10:39;;;;;;;4.50;4.20;;;;;;;;;;6246476;22;20200;-92
2022/07/21 23:13:09;;;;;;;4.40;4.10;;;;;;;;;;6246234;23;20247;-93
2022/07/21 23:15:40;;;;;;;4.70;4.40;;;;;;;;;;6245693;23;20192;-92
2022/07/21 23:18:29;;;;;;;5.13;4.75;;;;;;;;;;6246260;22;20172;-92
2022/07/21 23:20:58;;;;;;;4.90;4.50;;;;;;;;;;6246205;23;20196;-92
2022/07/21 23:23:25;;;;;;;4.60;4.30;;;;;;;;;;6246413;23;20172;-92
2022/07/21 23:25:58;;;;;;;4.40;4.00;;;;;;;;;;6245865;23;20200;-93
2022/07/21 23:31:36;;;;;;;4.68;4.38;;;;;;;;;;6271673;22;20203;-91
2022/07/21 23:37:08;;;;;;;4.53;4.22;;;;;;;;;;6252683;22;20169;-91
2022/07/21 23:58:51;;;;;;;4.85;4.45;;;;;;;;;;6268925;22;20206;-93
